Time;durP1;ratioP1;P1;durP2;ratioP2;P2;SDS_P1;SDS_P2;PMS_P1;PMS_P2;Temp;Humidity;BMP_temperature;BMP_pressure;BME280_temperature;BME280_humidity;BME280_pressure;Samples;Min_cycle;Max_cycle;Signal;HPM_P1;HPM_P2
2022/03/21 00:00:25;;;;;;;25.02;10.73;;;;;;;6.10;92.03;102736.44;5047817;28;20168;-70
2022/03/21 00:02:51;;;;;;;28.80;12.07;;;;;;;6.09;92.66;102728.84;5056809;28;20406;-69
2022/03/21 00:05:17;;;;;;;31.30;11.02;;;;;;;6.02;92.94;102723.97;5042411;28;20036;-70
2022/03/21 00:07:43;;;;;;;23.27;10.15;;;;;;;6.02;93.37;102734.28;5042707;28;20059;-70
2022/03/21 00:10:08;;;;;;;26.52;12.75;;;;;;;6.00;92.91;102733.53;5062118;28;20505;-70
2022/03/21 00:12:35;;;;;;;24.67;10.38;;;;;;;6.01;93.42;102742.94;5026520;28;20379;-70
2022/03/21 00:15:00;;;;;;;24.92;10.55;;;;;;;6.02;93.06;102736.84;5062254;28;20104;-70
2022/03/21 00:17:25;;;;;;;25.17;11.48;;;;;;;6.04;93.21;102736.78;5038152;28;20040;-70
2022/03/21 00:19:51;;;;;;;18.80;9.98;;;;;;;6.03;92.88;102738.53;5031524;28;20023;-70
2022/03/21 00:22:17;;;;;;;21.23;10.90;;;;;;;6.03;93.04;102723.06;5065673;28;20827;-71
2022/03/21 00:24:43;;;;;;;23.08;11.23;;;;;;;6.02;92.99;102720.56;5062143;28;20037;-70
2022/03/21 00:27:12;;;;;;;23.30;10.60;;;;;;;6.01;93.31;102737.78;5063542;28;20046;-70
2022/03/21 00:29:44;;;;;;;23.40;9.82;;;;;;;6.01;93.79;102730.06;5069579;22;20512;-73
2022/03/21 00:32:10;;;;;;;22.63;10.70;;;;;;;6.00;93.50;102730.13;5072804;28;20044;-72
2022/03/21 00:34:35;;;;;;;19.80;9.93;;;;;;;5.99;93.75;102737.03;5082412;28;20037;-73
2022/03/21 00:37:01;;;;;;;25.33;11.25;;;;;;;6.00;93.88;102748.16;5084407;28;20109;-72
2022/03/21 00:39:26;;;;;;;21.92;12.27;;;;;;;6.01;93.92;102742.94;5084214;28;20052;-72
2022/03/21 00:41:52;;;;;;;26.33;11.20;;;;;;;6.02;94.08;102731.69;5079919;28;20044;-71
2022/03/21 00:44:17;;;;;;;21.63;12.35;;;;;;;6.03;93.94;102737.72;5063633;28;20437;-72
2022/03/21 00:46:43;;;;;;;28.05;11.13;;;;;;;6.04;94.26;102747.09;5047500;28;20028;-72
2022/03/21 00:49:12;;;;;;;23.00;10.70;;;;;;;6.03;94.20;102740.28;5049422;28;20024;-72
2022/03/21 00:51:38;;;;;;;24.85;11.30;;;;;;;6.04;94.32;102745.34;5046434;28;20036;-72
2022/03/21 00:54:03;;;;;;;23.77;11.77;;;;;;;6.05;94.29;102748.75;5066615;28;20393;-72
2022/03/21 00:56:29;;;;;;;25.20;11.77;;;;;;;6.06;94.47;102747.00;5080532;28;20035;-72
2022/03/21 00:58:54;;;;;;;22.70;11.60;;;;;;;6.06;94.26;102739.28;5049185;28;20085;-72
2022/03/21 01:01:20;;;;;;;25.75;11.15;;;;;;;6.06;94.34;102736.72;5085327;28;20032;-73
2022/03/21 01:03:45;;;;;;;25.65;12.88;;;;;;;6.10;93.92;102723.56;5067254;28;20463;-71
2022/03/21 01:06:10;;;;;;;26.45;12.98;;;;;;;6.07;93.86;102730.66;5087532;28;20047;-72
2022/03/21 01:08:36;;;;;;;26.75;12.73;;;;;;;6.01;94.30;102732.63;5084263;28;20530;-72
2022/03/21 01:11:02;;;;;;;33.75;13.25;;;;;;;5.95;94.54;102748.41;5084720;28;20502;-72
2022/03/21 01:13:28;;;;;;;28.00;11.77;;;;;;;5.94;94.80;102745.88;5062643;28;20036;-72
2022/03/21 01:15:53;;;;;;;23.85;12.18;;;;;;;5.96;95.20;102744.06;5068184;28;20543;-72
2022/03/21 01:18:21;;;;;;;23.42;12.43;;;;;;;5.96;95.03;102755.22;5058526;28;20505;-72
2022/03/21 01:20:47;;;;;;;24.55;12.32;;;;;;;5.97;95.33;102749.16;5086193;28;20127;-72
2022/03/21 01:23:12;;;;;;;23.08;12.27;;;;;;;5.96;95.62;102751.81;5079129;28;20119;-72
2022/03/21 01:25:38;;;;;;;28.75;11.90;;;;;;;5.96;95.55;102751.81;5082975;28;20383;-72
2022/03/21 01:28:03;;;;;;;27.33;12.45;;;;;;;5.96;95.71;102739.75;5062955;28;20039;-72
2022/03/21 01:30:29;;;;;;;28.95;12.27;;;;;;;5.97;95.50;102744.00;5050820;28;20528;-72
2022/03/21 01:32:54;;;;;;;24.23;12.07;;;;;;;5.99;95.48;102749.06;5071211;28;20032;-72
2022/03/21 01:35:21;;;;;;;27.48;12.88;;;;;;;6.00;95.38;102748.16;5084703;28;20039;-73
2022/03/21 01:37:47;;;;;;;23.83;12.57;;;;;;;6.00;95.21;102748.16;5083474;28;20520;-73
2022/03/21 01:40:15;;;;;;;26.00;12.00;;;;;;;6.01;95.11;102749.84;5082585;28;20036;-74
2022/03/21 01:42:43;;;;;;;24.48;12.38;;;;;;;6.01;94.70;102755.00;5050404;28;20444;-72
2022/03/21 01:45:10;;;;;;;24.85;11.93;;;;;;;6.01;94.67;102750.66;5083829;28;20032;-73
2022/03/21 01:47:36;;;;;;;26.55;11.77;;;;;;;5.99;94.50;102749.91;5084006;28;20028;-72
2022/03/21 01:50:04;;;;;;;28.08;12.73;;;;;;;5.96;94.83;102746.66;5054224;28;20090;-72
2022/03/21 01:52:29;;;;;;;24.35;12.30;;;;;;;5.93;94.96;102751.91;5064758;28;20040;-73
2022/03/21 01:57:41;;;;;;;29.25;13.65;;;;;;;5.89;95.84;102753.81;5063429;28;20062;-73
2022/03/21 02:00:07;;;;;;;26.92;12.27;;;;;;;5.82;95.80;102750.72;5082578;28;20024;-73
2022/03/21 02:02:39;;;;;;;24.57;12.57;;;;;;;5.82;96.46;102755.88;5080025;28;20081;-73
2022/03/21 02:05:05;;;;;;;20.77;11.82;;;;;;;5.84;96.30;102750.66;5061611;28;20367;-74
2022/03/21 02:07:31;;;;;;;22.42;11.27;;;;;;;5.82;96.24;102755.03;5084038;28;20450;-73
2022/03/21 02:09:57;;;;;;;23.83;12.13;;;;;;;5.83;96.75;102754.13;5066039;28;20024;-74
2022/03/21 02:12:23;;;;;;;30.85;12.80;;;;;;;5.83;96.53;102754.97;5081746;28;20052;-72
2022/03/21 02:14:49;;;;;;;23.55;12.35;;;;;;;5.83;96.39;102749.81;5048632;28;20467;-72
2022/03/21 02:17:22;;;;;;;24.63;12.57;;;;;;;5.85;96.32;102753.13;5083745;28;20177;-72
2022/03/21 02:19:48;;;;;;;26.42;12.30;;;;;;;5.84;96.32;102751.47;5063381;28;20367;-73
2022/03/21 02:22:27;;;;;;;24.58;13.45;;;;;;;5.85;96.71;102757.47;5044514;28;20116;-72
2022/03/21 02:24:57;;;;;;;22.70;12.63;;;;;;;5.85;96.66;102749.72;5081902;28;20045;-74
2022/03/21 02:27:26;;;;;;;25.40;13.00;;;;;;;5.85;96.22;102739.44;5082598;28;20036;-73
2022/03/21 02:29:52;;;;;;;22.48;11.80;;;;;;;5.85;95.86;102750.56;5078314;28;20106;-72
2022/03/21 02:32:19;;;;;;;21.90;11.88;;;;;;;5.85;95.73;102747.16;5064710;28;20080;-72
2022/03/21 02:34:46;;;;;;;25.27;13.13;;;;;;;5.84;95.12;102741.19;5084166;28;20560;-72
2022/03/21 02:37:16;;;;;;;34.70;12.55;;;;;;;5.83;95.23;102751.56;5064645;28;20036;-72
2022/03/21 02:39:42;;;;;;;25.67;12.70;;;;;;;5.81;95.35;102743.06;5086099;28;20020;-72
2022/03/21 02:42:08;;;;;;;25.25;12.32;;;;;;;5.79;94.63;102748.31;5065049;28;20089;-72
2022/03/21 02:44:39;;;;;;;26.85;12.25;;;;;;;5.74;94.67;102745.13;5081318;28;20028;-73
2022/03/21 02:47:06;;;;;;;24.15;12.02;;;;;;;5.72;94.86;102738.38;5067239;28;20375;-72
2022/03/21 02:49:32;;;;;;;24.60;11.27;;;;;;;5.71;95.02;102739.28;5067390;28;20644;-72
2022/03/21 02:51:59;;;;;;;23.20;11.25;;;;;;;5.71;95.03;102734.13;5081988;28;20036;-72
2022/03/21 02:54:26;;;;;;;25.98;11.82;;;;;;;5.68;95.04;102731.75;5049248;28;20117;-72
2022/03/21 02:56:51;;;;;;;25.70;11.18;;;;;;;5.65;95.28;102730.97;5081618;28;20496;-72
2022/03/21 02:59:17;;;;;;;24.42;12.00;;;;;;;5.66;95.19;102730.06;5066410;28;20036;-72
2022/03/21 03:01:43;;;;;;;26.85;12.07;;;;;;;5.61;95.11;102724.34;5065030;28;20044;-74
2022/03/21 03:04:09;;;;;;;27.33;11.93;;;;;;;5.58;95.71;102726.22;5060948;28;20680;-73
2022/03/21 03:06:34;;;;;;;25.90;12.43;;;;;;;5.58;95.62;102733.94;5082635;28;20028;-73
2022/03/21 03:09:00;;;;;;;24.27;11.73;;;;;;;5.59;95.99;102731.25;5066424;28;20028;-72
2022/03/21 03:11:26;;;;;;;23.20;11.55;;;;;;;5.59;95.94;102731.25;5084836;28;20039;-73
2022/03/21 03:13:51;;;;;;;25.02;12.23;;;;;;;5.60;95.73;102729.56;5082034;28;20020;-73
2022/03/21 03:16:18;;;;;;;26.63;11.60;;;;;;;5.59;95.81;102731.25;5054818;28;20450;-72
2022/03/21 03:18:44;;;;;;;20.65;11.63;;;;;;;5.59;95.58;102735.59;5067978;28;20032;-72
2022/03/21 03:21:10;;;;;;;28.17;11.23;;;;;;;5.58;95.45;102742.47;5066085;28;20398;-72
2022/03/21 03:23:38;;;;;;;22.60;11.90;;;;;;;5.58;95.45;102745.06;5066849;28;20036;-72
2022/03/21 03:26:04;;;;;;;21.60;11.70;;;;;;;5.56;95.47;102744.31;5065014;28;20409;-72
2022/03/21 03:28:31;;;;;;;24.70;12.82;;;;;;;5.57;94.92;102742.56;5065632;28;20034;-73
2022/03/21 03:30:59;;;;;;;26.63;12.60;;;;;;;5.55;94.95;102740.06;5060126;28;20555;-74
2022/03/21 03:33:25;;;;;;;27.35;12.23;;;;;;;5.54;95.16;102746.13;5081601;28;20027;-72
2022/03/21 03:35:51;;;;;;;25.50;12.63;;;;;;;5.54;95.04;102751.28;5078746;28;20032;-72
2022/03/21 03:38:17;;;;;;;27.15;12.95;;;;;;;5.52;94.98;102747.94;5062458;28;20035;-72
2022/03/21 03:40:43;;;;;;;26.17;12.90;;;;;;;5.48;94.85;102746.41;5064236;28;20027;-72
2022/03/21 03:43:10;;;;;;;25.60;12.55;;;;;;;5.46;94.80;102745.66;5052661;28;20482;-73
2022/03/21 03:45:36;;;;;;;26.75;13.07;;;;;;;5.44;95.14;102745.75;5080672;28;20073;-72
2022/03/21 03:48:02;;;;;;;26.05;12.55;;;;;;;5.43;94.39;102750.97;5047057;28;20019;-72
2022/03/21 03:50:28;;;;;;;25.63;12.82;;;;;;;5.40;94.37;102748.53;5059483;28;20035;-73
2022/03/21 03:52:53;;;;;;;24.95;12.50;;;;;;;5.36;94.77;102750.41;5047907;28;20032;-72
2022/03/21 03:55:19;;;;;;;27.13;12.68;;;;;;;5.35;94.67;102747.91;5065306;28;20028;-72
2022/03/21 03:57:45;;;;;;;26.50;12.65;;;;;;;5.31;94.47;102754.94;5048245;28;20029;-72
2022/03/21 04:00:13;;;;;;;27.70;13.25;;;;;;;5.29;94.17;102745.66;5079455;28;20407;-72
2022/03/21 04:05:22;;;;;;;31.60;13.70;;;;;;;5.22;94.20;102752.84;5078664;28;20499;-72
2022/03/21 04:07:52;;;;;;;30.50;13.63;;;;;;;5.21;93.91;102748.59;5049622;28;20020;-73
2022/03/21 04:10:18;;;;;;;32.78;14.20;;;;;;;5.19;93.92;102745.25;5063100;28;20628;-72
2022/03/21 04:12:46;;;;;;;28.00;14.43;;;;;;;5.16;94.17;102750.53;5085166;28;20090;-72
2022/03/21 04:15:11;;;;;;;31.58;13.30;;;;;;;5.11;93.90;102749.94;5063889;28;20089;-72
2022/03/21 04:17:37;;;;;;;27.58;13.38;;;;;;;5.06;93.79;102752.72;5062137;28;20040;-72
2022/03/21 04:20:03;;;;;;;31.98;14.85;;;;;;;5.03;94.42;102760.59;5081136;28;20032;-72
2022/03/21 04:22:29;;;;;;;35.25;14.40;;;;;;;4.96;94.88;102756.63;5081486;28;20051;-72
2022/03/21 04:24:54;;;;;;;26.63;14.18;;;;;;;4.90;95.31;102762.91;5048473;28;20059;-72
2022/03/21 04:27:20;;;;;;;33.92;14.60;;;;;;;4.88;95.67;102760.41;5062207;28;20408;-72
2022/03/21 04:29:46;;;;;;;31.45;14.80;;;;;;;4.88;95.82;102762.13;5064782;28;20031;-72
2022/03/21 04:32:11;;;;;;;28.00;15.48;;;;;;;4.87;96.49;102763.03;5053577;28;20682;-72
2022/03/21 04:34:37;;;;;;;33.17;15.85;;;;;;;4.87;96.28;102768.16;5080046;28;20055;-72
2022/03/21 04:37:02;;;;;;;31.45;14.88;;;;;;;4.85;96.56;102769.97;5067607;28;20035;-72
2022/03/21 04:39:28;;;;;;;31.27;14.73;;;;;;;4.81;97.07;102769.28;5086105;28;20028;-73
2022/03/21 04:41:54;;;;;;;34.20;14.70;;;;;;;4.80;96.77;102766.78;5070499;28;20028;-73
2022/03/21 04:44:19;;;;;;;35.47;15.57;;;;;;;4.79;96.83;102765.94;5052592;28;20025;-72
2022/03/21 04:46:45;;;;;;;30.80;14.32;;;;;;;4.84;96.46;102769.16;5087016;28;20050;-72
2022/03/21 04:49:10;;;;;;;30.40;14.65;;;;;;;4.78;96.13;102768.59;5066136;28;20474;-72
2022/03/21 04:51:36;;;;;;;27.00;13.73;;;;;;;4.69;96.42;102769.84;5063229;28;20032;-72
2022/03/21 04:54:01;;;;;;;28.58;14.52;;;;;;;4.63;97.17;102770.13;5049754;28;20563;-72
2022/03/21 04:56:27;;;;;;;27.30;14.05;;;;;;;4.63;96.97;102778.69;5068666;28;20118;-73
2022/03/21 04:58:52;;;;;;;26.50;14.02;;;;;;;4.64;97.61;102782.06;5068616;28;20032;-75
2022/03/21 05:01:19;;;;;;;27.33;14.60;;;;;;;4.66;97.54;102788.81;5069800;28;20082;-72
2022/03/21 05:03:44;;;;;;;32.47;15.93;;;;;;;4.66;97.83;102788.81;5054693;28;20027;-72
2022/03/21 05:06:10;;;;;;;31.88;15.77;;;;;;;4.67;97.90;102793.06;5084744;28;20048;-72
2022/03/21 05:08:35;;;;;;;30.63;15.23;;;;;;;4.69;98.20;102800.69;5066696;28;20047;-72
2022/03/21 05:11:01;;;;;;;30.02;15.35;;;;;;;4.69;97.86;102803.28;5067175;28;20036;-72
2022/03/21 05:13:26;;;;;;;26.77;14.75;;;;;;;4.70;97.96;102793.81;5086973;28;20050;-71
2022/03/21 05:15:52;;;;;;;29.15;14.90;;;;;;;4.69;97.94;102793.00;5065322;28;20090;-72
2022/03/21 05:18:17;;;;;;;28.40;14.93;;;;;;;4.67;98.05;102790.47;5065291;28;20036;-72
2022/03/21 05:20:44;;;;;;;30.38;15.40;;;;;;;4.67;97.74;102789.63;5080163;28;20040;-72
2022/03/21 05:31:25;;;;;;;29.95;15.27;;;;;;;4.58;96.59;102800.34;5082574;28;20078;-71
2022/03/21 05:36:35;;;;;;;29.77;14.70;;;;;;;4.49;96.02;102789.56;5085349;28;20024;-72
2022/03/21 05:39:00;;;;;;;31.55;15.02;;;;;;;4.42;95.10;102798.44;5083172;28;20601;-71
2022/03/21 05:41:26;;;;;;;28.10;14.90;;;;;;;4.34;95.01;102800.50;5058882;28;20036;-72
2022/03/21 05:43:51;;;;;;;27.30;14.43;;;;;;;4.28;95.20;102793.91;5083557;28;20024;-72
2022/03/21 05:46:18;;;;;;;25.80;14.07;;;;;;;4.26;94.91;102811.09;5084709;28;22102;-72
2022/03/21 05:49:02;;;;;;;28.33;13.90;;;;;;;4.27;95.52;102814.50;5082432;28;20662;-72
2022/03/21 05:51:35;;;;;;;31.65;14.23;;;;;;;4.25;95.28;102818.88;5068605;28;20083;-73
2022/03/21 05:54:08;;;;;;;34.78;15.65;;;;;;;4.24;94.99;102801.81;5060539;28;20040;-72
2022/03/21 05:56:34;;;;;;;30.45;16.02;;;;;;;4.21;95.49;102810.47;5065991;28;20113;-74
2022/03/21 06:00:20;;;;;;;33.70;16.35;;;;;;;4.22;94.84;102813.84;5084059;28;20074;-73
2022/03/21 06:01:51;;;;;;;35.50;15.75;;;;;;;4.19;94.79;102809.69;5089952;28;20595;-72
2022/03/21 06:04:18;;;;;;;32.17;15.57;;;;;;;4.19;94.91;102817.41;5048342;28;20493;-72
2022/03/21 06:06:44;;;;;;;25.23;13.75;;;;;;;4.17;95.18;102819.19;5062856;28;20431;-72
2022/03/21 06:09:09;;;;;;;27.35;14.25;;;;;;;4.18;95.30;102825.16;5082050;28;20024;-72
2022/03/21 06:11:36;;;;;;;27.02;14.45;;;;;;;4.20;95.07;102825.94;5065835;28;20729;-72
2022/03/21 06:14:05;;;;;;;30.23;13.73;;;;;;;4.20;95.01;102816.53;5086642;28;20046;-72
2022/03/21 06:16:32;;;;;;;26.67;14.40;;;;;;;4.22;94.89;102824.13;5063137;28;20043;-72
2022/03/21 06:19:00;;;;;;;30.58;14.50;;;;;;;4.23;95.05;102824.06;5082617;28;20035;-73
2022/03/21 06:21:28;;;;;;;27.40;13.52;;;;;;;4.24;94.21;102827.50;5067836;28;20028;-73
2022/03/21 06:23:54;;;;;;;28.95;13.35;;;;;;;4.26;94.76;102823.94;5086506;28;20040;-72
2022/03/21 06:26:19;;;;;;;29.17;14.10;;;;;;;4.27;94.49;102825.59;5063789;28;20078;-71
2022/03/21 06:28:46;;;;;;;26.25;12.13;;;;;;;4.29;94.47;102828.13;5076000;22;20024;-84
2022/03/21 06:31:11;;;;;;;26.23;12.02;;;;;;;4.31;94.31;102833.19;5058793;28;20469;-84
2022/03/21 06:33:37;;;;;;;31.30;12.82;;;;;;;4.31;94.35;102826.31;5081196;28;20158;-84
2022/03/21 06:36:03;;;;;;;31.25;13.27;;;;;;;4.35;94.03;102834.72;5058211;28;20126;-84
2022/03/21 06:38:29;;;;;;;28.02;12.95;;;;;;;4.37;93.97;102841.47;5051907;28;20026;-84
2022/03/21 06:40:55;;;;;;;25.02;12.75;;;;;;;4.40;94.00;102838.75;5060144;28;20087;-84
2022/03/21 06:43:22;;;;;;;25.23;13.20;;;;;;;4.48;94.54;102843.56;5047211;28;20082;-84
2022/03/21 06:45:51;;;;;;;24.77;13.65;;;;;;;4.61;94.54;102849.84;5041863;28;20123;-84
2022/03/21 06:48:17;;;;;;;24.63;13.63;;;;;;;4.83;94.11;102843.78;5045398;28;20027;-84
2022/03/21 06:50:46;;;;;;;26.92;14.52;;;;;;;5.18;93.51;102847.31;5046209;28;20098;-84
2022/03/21 06:53:13;;;;;;;30.35;15.00;;;;;;;5.64;92.99;102841.75;5043433;28;20167;-85
2022/03/21 06:55:39;;;;;;;28.92;15.73;;;;;;;6.05;91.36;102841.50;5043272;28;20042;-85
2022/03/21 06:58:06;;;;;;;29.33;15.02;;;;;;;6.46;90.45;102835.97;5045886;28;20488;-85
2022/03/21 07:00:32;;;;;;;29.65;14.93;;;;;;;6.87;88.91;102835.53;5040354;28;20117;-85
2022/03/21 07:02:57;;;;;;;30.48;15.27;;;;;;;7.21;87.72;102836.28;5049243;28;20097;-85
2022/03/21 07:05:25;;;;;;;33.85;16.27;;;;;;;7.52;86.02;102835.41;5061536;28;20097;-85
2022/03/21 07:07:52;;;;;;;35.50;14.70;;;;;;;7.76;84.29;102840.09;5047401;28;20113;-84
2022/03/21 07:10:17;;;;;;;37.10;16.83;;;;;;;7.97;82.76;102844.03;5063612;28;20059;-85
2022/03/21 07:12:43;;;;;;;31.45;15.45;;;;;;;8.14;81.88;102844.81;5057063;28;20105;-85
2022/03/21 07:15:09;;;;;;;30.52;15.00;;;;;;;8.21;79.14;102843.50;5056935;28;20031;-85
2022/03/21 07:17:34;;;;;;;32.90;15.65;;;;;;;8.55;78.48;102844.09;5051438;28;20333;-85
2022/03/21 07:20:00;;;;;;;38.10;15.98;;;;;;;8.75;77.24;102841.13;5046479;28;20028;-85
2022/03/21 07:22:25;;;;;;;30.65;15.38;;;;;;;8.92;76.36;102840.09;5046254;28;20032;-84
2022/03/21 07:24:51;;;;;;;31.30;14.88;;;;;;;8.92;75.65;102844.44;5040632;28;21721;-85
2022/03/21 07:27:17;;;;;;;41.45;17.27;;;;;;;9.17;76.63;102838.56;5043828;28;20044;-85
2022/03/21 07:29:42;;;;;;;33.97;16.05;;;;;;;9.43;75.31;102854.19;5047934;28;20077;-85
2022/03/21 07:32:08;;;;;;;32.70;15.25;;;;;;;9.64;74.23;102845.03;5043394;28;20040;-85
2022/03/21 07:34:33;;;;;;;36.92;16.35;;;;;;;9.67;73.38;102844.03;5058912;28;20047;-84
2022/03/21 07:36:59;;;;;;;33.70;16.25;;;;;;;9.66;73.47;102842.34;5053125;28;20135;-84
2022/03/21 07:39:24;;;;;;;35.55;17.08;;;;;;;9.87;73.28;102842.69;5062378;28;20042;-85
2022/03/21 07:41:59;;;;;;;33.88;17.13;;;;;;;10.04;72.08;102837.25;5043290;28;20066;-85
2022/03/21 07:47:20;;;;;;;38.70;20.08;;;;;;;10.12;69.94;102841.91;5059900;28;20062;-84
2022/03/21 07:49:49;;;;;;;37.17;18.10;;;;;;;10.59;69.40;102850.00;5074362;28;20950;-85
2022/03/21 07:52:19;;;;;;;35.83;17.20;;;;;;;10.92;68.08;102852.00;5040457;28;20078;-84
2022/03/21 07:54:55;;;;;;;43.65;18.77;;;;;;;11.01;66.78;102859.13;5046490;28;20088;-85
2022/03/21 07:57:24;;;;;;;38.15;18.08;;;;;;;10.65;64.76;102850.41;5040704;28;20082;-86
2022/03/21 07:59:53;;;;;;;36.63;19.58;;;;;;;10.51;64.68;102853.13;5065345;28;20040;-85
2022/03/21 08:02:21;;;;;;;36.00;17.20;;;;;;;11.10;65.41;102857.66;5061230;28;20509;-85
2022/03/21 08:04:50;;;;;;;36.78;17.95;;;;;;;10.78;62.00;102857.34;5043150;28;20024;-85
2022/03/21 08:07:16;;;;;;;35.25;17.67;;;;;;;10.77;62.95;102856.50;5039947;28;20039;-86
2022/03/21 08:09:41;;;;;;;45.97;18.15;;;;;;;10.87;62.29;102865.31;5045061;28;20477;-84
2022/03/21 08:12:07;;;;;;;34.25;17.05;;;;;;;10.81;62.21;102863.16;5050721;28;20067;-85
2022/03/21 08:14:33;;;;;;;32.97;17.48;;;;;;;10.90;62.04;102864.25;5060317;28;20527;-85
2022/03/21 08:16:59;;;;;;;34.63;18.40;;;;;;;11.40;60.59;102859.81;5038645;28;20036;-85
2022/03/21 08:19:25;;;;;;;36.78;18.35;;;;;;;11.37;60.42;102867.81;5076879;28;20082;-85
2022/03/21 08:21:54;;;;;;;32.42;18.27;;;;;;;11.62;58.92;102853.88;5040899;28;20039;-85
2022/03/21 08:24:21;;;;;;;35.80;18.33;;;;;;;11.85;58.56;102859.97;5038605;28;20040;-85
2022/03/21 08:26:47;;;;;;;37.75;19.27;;;;;;;11.98;56.92;102864.28;5043532;28;20029;-85
2022/03/21 08:29:13;;;;;;;37.75;19.35;;;;;;;12.41;57.43;102858.41;5041964;28;20507;-84
2022/03/21 08:31:38;;;;;;;34.88;19.70;;;;;;;12.85;56.03;102867.97;5043710;28;20035;-85
2022/03/21 08:34:04;;;;;;;44.65;18.63;;;;;;;12.68;54.76;102862.44;5042970;28;20450;-85
2022/03/21 08:36:31;;;;;;;33.97;18.85;;;;;;;12.80;55.73;102871.91;5043376;28;20029;-86
2022/03/21 08:38:57;;;;;;;32.67;18.60;;;;;;;13.15;54.32;102860.47;5056463;28;20024;-86
2022/03/21 08:41:22;;;;;;;34.83;18.70;;;;;;;13.29;54.19;102859.34;5048729;28;20055;-85
2022/03/21 08:43:49;;;;;;;35.25;19.38;;;;;;;13.37;54.42;102862.19;5038726;28;20471;-85
2022/03/21 08:46:16;;;;;;;37.65;18.92;;;;;;;13.25;53.59;102856.16;5047615;28;20028;-85
2022/03/21 08:51:26;;;;;;;37.55;19.13;;;;;;;13.24;53.08;102860.56;5053834;28;20047;-86
2022/03/21 08:53:53;;;;;;;39.55;20.33;;;;;;;13.15;53.32;102860.47;5040946;28;20408;-86
2022/03/21 08:56:18;;;;;;;36.00;18.98;;;;;;;13.24;53.05;102859.72;5055861;28;20250;-86
2022/03/21 08:58:44;;;;;;;38.60;19.45;;;;;;;13.30;51.85;102859.28;5060577;28;20038;-85
2022/03/21 09:01:09;;;;;;;37.53;20.05;;;;;;;13.32;52.46;102856.53;5038266;28;20037;-86
2022/03/21 09:03:35;;;;;;;37.95;19.73;;;;;;;13.35;53.17;102856.28;5059355;28;20578;-87
2022/03/21 09:06:01;;;;;;;38.22;19.92;;;;;;;13.54;53.80;102855.59;5042627;28;20387;-86
2022/03/21 09:08:26;;;;;;;35.80;18.73;;;;;;;13.47;53.02;102859.66;5042565;28;20035;-86
2022/03/21 09:10:52;;;;;;;34.40;18.40;;;;;;;13.73;55.11;102860.13;5045824;28;20074;-86
2022/03/21 09:13:19;;;;;;;41.20;20.45;;;;;;;14.00;55.48;102851.81;5064842;28;20036;-86
2022/03/21 09:15:45;;;;;;;38.22;19.00;;;;;;;14.12;52.44;102855.97;5048062;28;20036;-85
2022/03/21 09:18:10;;;;;;;36.45;20.10;;;;;;;14.07;53.42;102852.09;5043529;28;20040;-86
2022/03/21 09:20:36;;;;;;;40.45;20.80;;;;;;;14.28;53.35;102858.13;5059413;28;20029;-86
2022/03/21 09:23:02;;;;;;;35.85;18.75;;;;;;;14.63;52.89;102856.91;5063922;28;20115;-86
2022/03/21 09:25:28;;;;;;;38.38;21.05;;;;;;;14.39;53.06;102846.75;5045081;28;20093;-86
2022/03/21 09:27:53;;;;;;;40.70;20.45;;;;;;;14.40;53.42;102845.81;5060358;28;20400;-85
2022/03/21 09:30:19;;;;;;;42.00;20.77;;;;;;;14.17;53.91;102838.16;5050160;28;20031;-86
2022/03/21 09:32:44;;;;;;;37.00;20.00;;;;;;;14.19;53.70;102849.28;5043981;28;20040;-86
2022/03/21 09:35:10;;;;;;;37.53;20.58;;;;;;;13.90;53.43;102840.47;5049765;28;20036;-86
2022/03/21 09:37:36;;;;;;;38.95;20.15;;;;;;;13.80;55.74;102846.47;5043725;28;20438;-86
2022/03/21 09:40:02;;;;;;;38.28;20.38;;;;;;;13.76;53.67;102839.84;5060607;28;20028;-86
2022/03/21 09:42:28;;;;;;;41.80;22.95;;;;;;;13.95;55.49;102844.34;5045960;28;20122;-86
2022/03/21 09:44:54;;;;;;;44.28;21.02;;;;;;;14.08;56.86;102844.16;5056604;28;20385;-86
2022/03/21 09:48:12;;;;;;;49.63;21.08;;;;;;;14.06;55.40;102845.25;5060561;28;20036;-87
2022/03/21 09:51:02;;;;;;;88.10;26.30;;;;;;;14.18;54.41;102838.97;4952817;28;20340;-87
2022/03/21 09:57:07;;;;;;;43.53;20.70;;;;;;;14.33;55.29;102831.63;4983564;28;20227;-87
2022/03/21 09:59:35;;;;;;;40.53;21.38;;;;;;;14.21;53.56;102833.50;4962764;28;20025;-88
2022/03/21 10:02:16;;;;;;;39.20;21.35;;;;;;;14.06;54.86;102834.81;5040316;28;20508;-86
2022/03/21 10:04:43;;;;;;;42.58;21.23;;;;;;;14.15;54.79;102839.25;5060090;28;20036;-86
2022/03/21 10:07:29;;;;;;;36.58;20.70;;;;;;;14.12;53.57;102829.91;5057246;28;20044;-87
2022/03/21 10:10:25;;;;;;;37.80;22.30;;;;;;;14.24;55.12;102830.66;5079201;28;20075;-86
2022/03/21 10:12:50;;;;;;;37.55;20.92;;;;;;;14.20;54.10;102835.31;5055999;28;20094;-88
2022/03/21 10:15:24;;;;;;;38.65;21.55;;;;;;;14.24;54.11;102838.47;5058863;28;20048;-87
2022/03/21 10:18:04;;;;;;;37.72;21.30;;;;;;;14.29;56.64;102832.84;5060709;28;20042;-86
2022/03/21 10:20:35;;;;;;;34.83;21.80;;;;;;;14.46;55.78;102828.81;5048075;28;20530;-86
2022/03/21 10:23:17;;;;;;;39.17;20.92;;;;;;;14.46;56.02;102824.41;5039451;28;20032;-86
2022/03/21 10:25:43;;;;;;;42.58;22.42;;;;;;;14.43;54.22;102827.28;5042950;28;20048;-88
2022/03/21 10:28:09;;;;;;;43.15;21.92;;;;;;;14.45;55.17;102821.91;5041560;28;20036;-88
2022/03/21 10:30:44;;;;;;;42.50;21.75;;;;;;;14.40;56.84;102822.31;5053366;28;20032;-87
2022/03/21 10:33:10;;;;;;;40.60;22.92;;;;;;;14.57;56.93;102821.72;5046842;28;20123;-87
2022/03/21 10:35:45;;;;;;;38.47;21.65;;;;;;;14.53;54.53;102820.31;5045359;28;20107;-88
2022/03/21 10:38:10;;;;;;;40.50;22.58;;;;;;;14.46;56.01;102813.13;5055831;28;20684;-87
2022/03/21 10:40:45;;;;;;;44.65;22.42;;;;;;;14.46;55.33;102820.97;5059496;28;20038;-86
2022/03/21 10:43:13;;;;;;;38.70;22.25;;;;;;;14.54;54.18;102821.13;5043696;28;20042;-86
2022/03/21 10:45:41;;;;;;;38.92;20.67;;;;;;;14.51;54.29;102831.84;5058578;28;20024;-87
2022/03/21 10:48:15;;;;;;;40.83;22.05;;;;;;;14.75;53.83;102828.94;5053499;28;20823;-87
2022/03/21 10:50:44;;;;;;;38.88;21.40;;;;;;;14.81;53.98;102817.13;5049206;28;20032;-87
2022/03/21 10:53:14;;;;;;;39.00;20.88;;;;;;;14.98;53.06;102817.25;5051353;28;20032;-88
2022/03/21 10:55:57;;;;;;;41.80;21.35;;;;;;;15.03;51.68;102810.81;5049046;28;20063;-86
2022/03/21 10:58:43;;;;;;;36.80;21.33;;;;;;;15.07;52.84;102804.34;5059079;28;20086;-86
2022/03/21 11:01:15;;;;;;;36.75;20.83;;;;;;;15.10;51.71;102810.13;5056292;28;20036;-87
2022/03/21 11:03:43;;;;;;;36.35;20.60;;;;;;;14.99;52.24;102808.47;5054451;28;20040;-86
2022/03/21 11:06:10;;;;;;;37.03;20.00;;;;;;;15.21;52.42;102805.72;5046897;28;20029;-88
2022/03/21 11:08:36;;;;;;;38.05;20.85;;;;;;;15.34;52.04;102793.22;5048668;28;20036;-88
2022/03/21 11:11:03;;;;;;;36.13;21.38;;;;;;;15.49;54.25;102799.66;5044695;28;20112;-87
2022/03/21 11:13:30;;;;;;;35.13;20.50;;;;;;;15.50;51.78;102798.69;5058010;28;20027;-88
2022/03/21 11:15:56;;;;;;;39.40;20.85;;;;;;;15.75;50.81;102793.84;5051834;28;20483;-89
2022/03/21 11:18:25;;;;;;;36.95;20.83;;;;;;;15.68;50.91;102800.59;5058108;28;20032;-87
2022/03/21 11:20:52;;;;;;;36.58;20.90;;;;;;;15.75;51.23;102791.25;5045150;28;20480;-87
2022/03/21 11:23:19;;;;;;;38.53;20.65;;;;;;;15.86;49.52;102792.84;5049997;28;20127;-88
2022/03/21 11:25:56;;;;;;;40.90;21.08;;;;;;;15.70;50.13;102796.84;5041586;28;20055;-88
2022/03/21 11:28:53;;;;;;;33.85;19.38;;;;;;;15.76;50.98;102792.88;5060893;28;20043;-87
2022/03/21 11:31:51;;;;;;;36.33;21.38;;;;;;;16.03;50.20;102797.34;5044160;28;20049;-88
2022/03/21 11:35:08;;;;;;;42.65;21.55;;;;;;;15.83;51.21;102796.56;5051999;28;20033;-88
2022/03/21 11:37:34;;;;;;;37.28;21.75;;;;;;;16.04;50.23;102792.94;5021638;28;20478;-86
2022/03/21 11:40:28;;;;;;;35.80;21.25;;;;;;;15.91;49.59;102782.78;5047257;28;20035;-86
2022/03/21 11:43:14;;;;;;;34.80;20.92;;;;;;;15.98;51.57;102789.09;5056506;28;20318;-88